Time;durP1;ratioP1;P1;durP2;ratioP2;P2;SDS_P1;SDS_P2;PMS_P1;PMS_P2;Temp;Humidity;BMP_temperature;BMP_pressure;BME280_temperature;BME280_humidity;BME280_pressure;Samples;Min_cycle;Max_cycle;Signal;HPM_P1;HPM_P2
2022/10/03 00:01:30;;;;;;;;;;;20.70;49.80;;;;;;5031377;28;19987;-72
2022/10/03 00:04:00;;;;;;;;;;;20.70;49.80;;;;;;5027912;28;19987;-72
2022/10/03 00:06:29;;;;;;;;;;;20.70;49.80;;;;;;5030866;28;20179;-72
2022/10/03 00:09:15;;;;;;;;;;;20.70;49.80;;;;;;5031231;28;19925;-72
2022/10/03 00:11:44;;;;;;;;;;;20.70;49.80;;;;;;5032150;28;20016;-72
2022/10/03 00:14:13;;;;;;;;;;;20.70;49.80;;;;;;5031851;28;19935;-72
2022/10/03 00:16:42;;;;;;;;;;;20.70;49.80;;;;;;5030643;28;19929;-72
2022/10/03 00:19:13;;;;;;;;;;;20.70;49.80;;;;;;5030335;28;19970;-72
2022/10/03 00:21:43;;;;;;;;;;;20.70;49.90;;;;;;5029671;28;20408;-72
2022/10/03 00:24:14;;;;;;;;;;;20.70;49.80;;;;;;5029897;28;19925;-72
2022/10/03 00:26:43;;;;;;;;;;;20.70;49.90;;;;;;5033022;28;19925;-72
2022/10/03 00:29:20;;;;;;;;;;;20.70;49.90;;;;;;5030759;28;20365;-72
2022/10/03 00:31:49;;;;;;;;;;;20.70;49.90;;;;;;5030432;28;20367;-72
2022/10/03 00:34:19;;;;;;;;;;;20.70;49.90;;;;;;5031772;28;19925;-72
2022/10/03 00:36:49;;;;;;;;;;;20.60;49.80;;;;;;5031157;28;19925;-72
2022/10/03 00:39:25;;;;;;;;;;;20.70;49.90;;;;;;5027980;28;20065;-72
2022/10/03 00:42:12;;;;;;;;;;;20.70;49.90;;;;;;5025638;28;20023;-72
2022/10/03 00:44:58;;;;;;;;;;;20.70;49.90;;;;;;5031501;28;19925;-72
2022/10/03 00:47:39;;;;;;;;;;;20.70;49.90;;;;;;5030419;28;19968;-72
2022/10/03 00:50:10;;;;;;;;;;;20.60;49.90;;;;;;5027061;28;20015;-72
2022/10/03 00:52:47;;;;;;;;;;;20.60;49.90;;;;;;5028830;28;19925;-72
2022/10/03 00:55:16;;;;;;;;;;;20.60;49.90;;;;;;5029821;28;19952;-72
2022/10/03 00:57:53;;;;;;;;;;;20.60;49.90;;;;;;5029959;28;20018;-72
2022/10/03 01:00:20;;;;;;;;;;;20.60;49.90;;;;;;5030331;28;20083;-72
2022/10/03 01:02:49;;;;;;;;;;;20.60;49.90;;;;;;5030598;28;19933;-72
2022/10/03 01:05:20;;;;;;;;;;;20.60;49.90;;;;;;5030048;28;20030;-72
2022/10/03 01:08:04;;;;;;;;;;;20.60;49.90;;;;;;5031590;28;19929;-72
2022/10/03 01:10:32;;;;;;;;;;;20.60;49.90;;;;;;5030708;28;19935;-72
2022/10/03 01:13:04;;;;;;;;;;;20.60;49.90;;;;;;5029039;28;19925;-72
2022/10/03 01:15:36;;;;;;;;;;;20.60;49.90;;;;;;5012601;28;19988;-72
2022/10/03 01:18:21;;;;;;;;;;;20.60;49.90;;;;;;5013960;28;20361;-72
2022/10/03 01:20:52;;;;;;;;;;;20.60;49.90;;;;;;5008912;28;20072;-72
2022/10/03 01:23:43;;;;;;;;;;;20.60;49.90;;;;;;5009389;28;19925;-68
2022/10/03 01:26:16;;;;;;;;;;;20.60;49.90;;;;;;5016562;28;19928;-72
2022/10/03 01:31:32;;;;;;;;;;;20.60;49.90;;;;;;5010247;28;19937;-72
2022/10/03 01:34:00;;;;;;;;;;;20.60;49.90;;;;;;5018560;28;19929;-72
2022/10/03 01:36:29;;;;;;;;;;;20.60;49.90;;;;;;5029639;28;20006;-73
2022/10/03 01:38:56;;;;;;;;;;;20.60;49.90;;;;;;5031122;28;20044;-72
2022/10/03 01:41:26;;;;;;;;;;;20.60;49.90;;;;;;5029961;28;19964;-72
2022/10/03 01:43:55;;;;;;;;;;;20.60;49.90;;;;;;5029156;28;19932;-72
2022/10/03 01:46:22;;;;;;;;;;;20.60;49.90;;;;;;5030072;28;19951;-72
2022/10/03 01:48:51;;;;;;;;;;;20.60;49.90;;;;;;5031324;28;20028;-72
2022/10/03 01:51:20;;;;;;;;;;;20.60;49.90;;;;;;5029699;28;20424;-72
2022/10/03 01:53:50;;;;;;;;;;;20.60;49.90;;;;;;5029837;28;19955;-72
2022/10/03 01:56:19;;;;;;;;;;;20.60;49.90;;;;;;5030648;28;19931;-72
2022/10/03 01:58:48;;;;;;;;;;;20.60;49.90;;;;;;5029305;28;19931;-72
2022/10/03 02:01:24;;;;;;;;;;;20.60;49.90;;;;;;5031453;28;19925;-72
2022/10/03 02:03:53;;;;;;;;;;;20.60;49.90;;;;;;5033936;28;20012;-72
2022/10/03 02:06:21;;;;;;;;;;;20.60;49.90;;;;;;5034357;28;19926;-72
2022/10/03 02:08:50;;;;;;;;;;;20.60;49.90;;;;;;5035463;28;20550;-72
2022/10/03 02:11:22;;;;;;;;;;;20.60;49.90;;;;;;5034140;28;20008;-72
2022/10/03 02:13:50;;;;;;;;;;;20.60;49.90;;;;;;5033466;28;19925;-72
2022/10/03 02:16:24;;;;;;;;;;;20.60;49.90;;;;;;5033870;28;20287;-72
2022/10/03 02:18:52;;;;;;;;;;;20.60;49.90;;;;;;5029379;28;19984;-72
2022/10/03 02:21:20;;;;;;;;;;;20.60;49.90;;;;;;5030268;28;20326;-72
2022/10/03 02:23:51;;;;;;;;;;;20.50;49.80;;;;;;5025312;28;19932;-72
2022/10/03 02:26:37;;;;;;;;;;;20.50;49.80;;;;;;5032619;28;19933;-72
2022/10/03 02:29:10;;;;;;;;;;;20.50;49.80;;;;;;5023754;28;19925;-72
2022/10/03 02:32:00;;;;;;;;;;;20.50;49.70;;;;;;5030865;28;19925;-72
2022/10/03 02:34:42;;;;;;;;;;;20.50;49.70;;;;;;5020093;28;19931;-72
2022/10/03 02:37:28;;;;;;;;;;;20.50;49.70;;;;;;5032592;28;19983;-72
2022/10/03 02:40:00;;;;;;;;;;;20.50;49.70;;;;;;5033303;28;19925;-72
2022/10/03 02:42:31;;;;;;;;;;;20.50;49.70;;;;;;5032858;28;19991;-72
2022/10/03 02:45:18;;;;;;;;;;;20.50;49.70;;;;;;5030053;28;19933;-72
2022/10/03 02:48:06;;;;;;;;;;;20.50;49.70;;;;;;5013228;28;20237;-72
2022/10/03 02:50:41;;;;;;;;;;;20.50;49.70;;;;;;5038345;28;19929;-72
2022/10/03 02:53:14;;;;;;;;;;;20.50;49.70;;;;;;5032410;28;20429;-71
2022/10/03 02:55:52;;;;;;;;;;;20.50;49.70;;;;;;5032796;28;19925;-72
2022/10/03 02:58:46;;;;;;;;;;;20.50;49.70;;;;;;5033037;28;19979;-72
2022/10/03 03:01:19;;;;;;;;;;;20.50;49.60;;;;;;5008951;28;19925;-72
2022/10/03 03:04:10;;;;;;;;;;;20.50;49.60;;;;;;5032776;28;19925;-72
2022/10/03 03:06:42;;;;;;;;;;;20.50;49.60;;;;;;5018117;28;19932;-72
2022/10/03 03:09:28;;;;;;;;;;;20.50;49.60;;;;;;5032863;28;20038;-72
2022/10/03 03:12:03;;;;;;;;;;;20.50;49.60;;;;;;5029319;28;20189;-72
2022/10/03 03:14:51;;;;;;;;;;;20.50;49.50;;;;;;5031267;28;19932;-72
2022/10/03 03:17:26;;;;;;;;;;;20.50;49.50;;;;;;5012356;28;19968;-72
2022/10/03 03:20:14;;;;;;;;;;;20.50;49.50;;;;;;5013703;28;20402;-72
2022/10/03 03:22:46;;;;;;;;;;;20.50;49.50;;;;;;5032188;28;19925;-71
2022/10/03 03:25:26;;;;;;;;;;;20.50;49.50;;;;;;5032929;28;19988;-72
2022/10/03 03:27:57;;;;;;;;;;;20.50;49.50;;;;;;5028117;28;20024;-72
2022/10/03 03:30:24;;;;;;;;;;;20.50;49.50;;;;;;5031618;28;19929;-72
2022/10/03 03:32:59;;;;;;;;;;;20.50;49.50;;;;;;5032294;28;19925;-72
2022/10/03 03:35:28;;;;;;;;;;;20.50;49.50;;;;;;5031267;28;19925;-71
2022/10/03 03:38:00;;;;;;;;;;;20.50;49.40;;;;;;5032008;28;19925;-72
2022/10/03 03:40:31;;;;;;;;;;;20.50;49.40;;;;;;5032347;28;19925;-73
2022/10/03 03:43:03;;;;;;;;;;;20.50;49.50;;;;;;5033012;28;19933;-72
2022/10/03 03:45:32;;;;;;;;;;;20.50;49.40;;;;;;5031859;28;19929;-72
2022/10/03 03:48:17;;;;;;;;;;;20.50;49.40;;;;;;5033522;28;19936;-72
2022/10/03 03:50:47;;;;;;;;;;;20.50;49.40;;;;;;5027590;28;19949;-71
2022/10/03 03:53:26;;;;;;;;;;;20.50;49.40;;;;;;5028308;28;19933;-72
2022/10/03 03:55:58;;;;;;;;;;;20.50;49.40;;;;;;5037605;28;19925;-72
2022/10/03 03:58:31;;;;;;;;;;;20.40;49.40;;;;;;5030142;28;19929;-72
2022/10/03 04:01:05;;;;;;;;;;;20.40;49.40;;;;;;5031426;28;19987;-72
2022/10/03 04:03:34;;;;;;;;;;;20.40;49.40;;;;;;5032589;28;20106;-71
2022/10/03 04:06:05;;;;;;;;;;;20.50;49.40;;;;;;5030824;28;20362;-72
2022/10/03 04:08:59;;;;;;;;;;;20.40;49.40;;;;;;5031027;28;19925;-72
2022/10/03 04:11:27;;;;;;;;;;;20.40;49.40;;;;;;5031774;28;20014;-72
2022/10/03 04:14:02;;;;;;;;;;;20.40;49.40;;;;;;5031699;28;19925;-72
2022/10/03 04:19:19;;;;;;;;;;;20.40;49.30;;;;;;5031056;28;20383;-72
2022/10/03 04:21:51;;;;;;;;;;;20.40;49.30;;;;;;5030726;28;19925;-72
2022/10/03 04:24:35;;;;;;;;;;;20.40;49.30;;;;;;5031560;28;19975;-72
2022/10/03 04:27:17;;;;;;;;;;;20.40;49.40;;;;;;5021432;28;19925;-72
2022/10/03 04:29:46;;;;;;;;;;;20.40;49.40;;;;;;5031139;28;19956;-72
2022/10/03 04:32:21;;;;;;;;;;;20.40;49.40;;;;;;5031204;28;19925;-71
2022/10/03 04:34:51;;;;;;;;;;;20.40;49.40;;;;;;5024674;28;19925;-72
2022/10/03 04:37:20;;;;;;;;;;;20.40;49.40;;;;;;5031070;28;20028;-72
2022/10/03 04:39:49;;;;;;;;;;;20.40;49.40;;;;;;5030463;28;19929;-72
2022/10/03 04:42:23;;;;;;;;;;;20.40;49.40;;;;;;5030875;28;19925;-72
2022/10/03 04:44:58;;;;;;;;;;;20.40;49.60;;;;;;5030875;28;19944;-72
2022/10/03 04:47:26;;;;;;;;;;;20.40;49.50;;;;;;5030833;28;20032;-72
2022/10/03 04:49:55;;;;;;;;;;;20.40;49.50;;;;;;5031114;28;19972;-70
2022/10/03 04:52:23;;;;;;;;;;;20.40;49.50;;;;;;5030761;28;19947;-72
2022/10/03 04:54:52;;;;;;;;;;;20.40;49.50;;;;;;5030138;28;19955;-72
2022/10/03 04:57:24;;;;;;;;;;;20.40;49.50;;;;;;5028886;28;19929;-72
2022/10/03 04:59:52;;;;;;;;;;;20.40;49.50;;;;;;5031473;28;19925;-72
2022/10/03 05:02:24;;;;;;;;;;;20.40;49.50;;;;;;5029068;28;19933;-72
2022/10/03 05:05:11;;;;;;;;;;;20.40;49.50;;;;;;5029375;28;19925;-72
2022/10/03 05:07:40;;;;;;;;;;;20.40;49.50;;;;;;5026782;28;19925;-71
2022/10/03 05:10:17;;;;;;;;;;;20.40;49.50;;;;;;5030366;28;19925;-72
2022/10/03 05:12:47;;;;;;;;;;;20.40;49.50;;;;;;5029806;28;20430;-72
2022/10/03 05:15:17;;;;;;;;;;;20.40;49.50;;;;;;5029600;28;19932;-72
2022/10/03 05:17:47;;;;;;;;;;;20.40;49.50;;;;;;5031602;28;19925;-72
2022/10/03 05:20:22;;;;;;;;;;;20.40;49.50;;;;;;5029468;28;19972;-72
2022/10/03 05:22:51;;;;;;;;;;;20.40;49.50;;;;;;5030251;28;20035;-72
2022/10/03 05:25:21;;;;;;;;;;;20.40;49.50;;;;;;5029514;28;20023;-72
2022/10/03 05:27:50;;;;;;;;;;;20.40;49.50;;;;;;5030686;28;19925;-72
2022/10/03 05:30:19;;;;;;;;;;;20.40;49.50;;;;;;5021592;28;20012;-72
2022/10/03 05:32:47;;;;;;;;;;;20.40;49.50;;;;;;5010813;28;19932;-72
2022/10/03 05:35:25;;;;;;;;;;;20.40;49.50;;;;;;5012066;28;20024;-72
2022/10/03 05:38:07;;;;;;;;;;;20.40;49.50;;;;;;5029682;28;19980;-72
2022/10/03 05:40:34;;;;;;;;;;;20.40;49.50;;;;;;5016909;28;20016;-72
2022/10/03 05:43:01;;;;;;;;;;;20.30;49.40;;;;;;5031499;28;19925;-72
2022/10/03 05:45:29;;;;;;;;;;;20.40;49.50;;;;;;5030006;28;20028;-72
2022/10/03 05:48:06;;;;;;;;;;;20.40;49.50;;;;;;5029973;28;20011;-72
2022/10/03 05:50:41;;;;;;;;;;;20.40;49.50;;;;;;5029252;28;20019;-72
2022/10/03 05:53:18;;;;;;;;;;;20.30;49.40;;;;;;5030557;28;19928;-72
2022/10/03 05:55:51;;;;;;;;;;;20.30;49.40;;;;;;5028507;28;19925;-72
2022/10/03 05:58:35;;;;;;;;;;;20.30;49.40;;;;;;5010056;28;20368;-72
2022/10/03 06:01:06;;;;;;;;;;;20.30;49.40;;;;;;5017818;28;20015;-71
2022/10/03 06:03:48;;;;;;;;;;;20.30;49.40;;;;;;5029462;28;19929;-72
2022/10/03 06:06:21;;;;;;;;;;;20.30;49.40;;;;;;5025450;28;19933;-72
2022/10/03 06:08:52;;;;;;;;;;;20.30;49.50;;;;;;5009812;28;19933;-71
2022/10/03 06:11:21;;;;;;;;;;;20.30;49.40;;;;;;5023204;28;20381;-72
2022/10/03 06:14:04;;;;;;;;;;;20.30;49.40;;;;;;5027403;28;19936;-72
2022/10/03 06:16:32;;;;;;;;;;;20.30;49.50;;;;;;5028748;28;19937;-71
2022/10/03 06:19:14;;;;;;;;;;;20.30;49.50;;;;;;5029410;28;20402;-71
2022/10/03 06:22:08;;;;;;;;;;;20.30;49.50;;;;;;5029185;28;20022;-72
2022/10/03 06:25:01;;;;;;;;;;;20.30;49.40;;;;;;5028766;28;20023;-72
2022/10/03 06:27:47;;;;;;;;;;;20.30;49.50;;;;;;5028742;28;20556;-72
2022/10/03 06:30:19;;;;;;;;;;;20.30;49.40;;;;;;5029028;28;19936;-72
2022/10/03 06:33:03;;;;;;;;;;;20.30;49.50;;;;;;5027784;28;19925;-72
2022/10/03 06:35:45;;;;;;;;;;;20.30;49.40;;;;;;5014779;28;20209;-72
2022/10/03 06:38:39;;;;;;;;;;;20.30;49.40;;;;;;4996076;28;19932;-72
2022/10/03 06:41:24;;;;;;;;;;;20.30;49.50;;;;;;5019927;28;19926;-72
2022/10/03 06:43:55;;;;;;;;;;;20.30;49.40;;;;;;5022343;28;19929;-72
2022/10/03 06:46:35;;;;;;;;;;;20.30;49.40;;;;;;5029694;28;19925;-72
2022/10/03 06:49:13;;;;;;;;;;;20.30;49.50;;;;;;5031037;28;19925;-72
2022/10/03 06:51:46;;;;;;;;;;;20.30;49.40;;;;;;5032352;28;19929;-72
2022/10/03 06:54:31;;;;;;;;;;;20.30;49.40;;;;;;5031841;28;19925;-72
2022/10/03 06:57:14;;;;;;;;;;;20.30;49.50;;;;;;5009465;28;19926;-72
2022/10/03 06:59:47;;;;;;;;;;;20.30;49.40;;;;;;5019647;28;19972;-72
2022/10/03 07:02:32;;;;;;;;;;;20.40;49.60;;;;;;5029213;28;19956;-72
2022/10/03 07:05:18;;;;;;;;;;;20.40;49.50;;;;;;5008976;28;19926;-72
2022/10/03 07:08:02;;;;;;;;;;;20.40;49.60;;;;;;5029772;28;19925;-72
2022/10/03 07:10:35;;;;;;;;;;;20.40;49.60;;;;;;5032196;28;20035;-72
2022/10/03 07:13:07;;;;;;;;;;;20.40;50.20;;;;;;5022391;28;20348;-72
2022/10/03 07:15:46;;;;;;;;;;;20.40;49.60;;;;;;5031246;28;20020;-72
2022/10/03 07:18:28;;;;;;;;;;;20.40;49.60;;;;;;5031914;28;20518;-72
2022/10/03 07:21:04;;;;;;;;;;;20.40;49.60;;;;;;5030816;28;19925;-72
2022/10/03 07:23:34;;;;;;;;;;;20.40;49.70;;;;;;5026897;28;19933;-72
2022/10/03 07:26:19;;;;;;;;;;;20.40;49.70;;;;;;5032478;28;19971;-72
2022/10/03 07:29:07;;;;;;;;;;;20.40;49.70;;;;;;5033393;28;19925;-72
2022/10/03 07:31:38;;;;;;;;;;;20.40;49.70;;;;;;5027687;28;19925;-72
2022/10/03 07:34:18;;;;;;;;;;;20.40;49.70;;;;;;5032522;28;19925;-72
2022/10/03 07:39:59;;;;;;;;;;;20.40;49.70;;;;;;5033754;28;19988;-72
2022/10/03 07:42:46;;;;;;;;;;;20.40;49.70;;;;;;5039935;28;19961;-72
2022/10/03 07:45:33;;;;;;;;;;;20.40;49.80;;;;;;5003423;28;20355;-72
2022/10/03 07:48:06;;;;;;;;;;;20.40;49.80;;;;;;5032549;28;19988;-72
2022/10/03 07:50:58;;;;;;;;;;;20.40;49.80;;;;;;5032317;28;19929;-72
2022/10/03 07:53:39;;;;;;;;;;;20.40;49.90;;;;;;5017045;28;19929;-72
2022/10/03 07:56:08;;;;;;;;;;;20.40;49.90;;;;;;5029002;28;19971;-72
2022/10/03 07:58:42;;;;;;;;;;;20.40;49.90;;;;;;5032214;28;19925;-72
2022/10/03 08:01:13;;;;;;;;;;;20.40;49.90;;;;;;5031800;28;19925;-72
2022/10/03 08:04:00;;;;;;;;;;;20.40;50.00;;;;;;5032168;28;19925;-71
2022/10/03 08:06:31;;;;;;;;;;;20.40;50.00;;;;;;5025517;28;19972;-71
2022/10/03 08:09:11;;;;;;;;;;;20.40;50.00;;;;;;5048355;28;19968;-72
2022/10/03 08:11:47;;;;;;;;;;;20.40;50.00;;;;;;5035633;28;19929;-72
2022/10/03 08:14:18;;;;;;;;;;;20.40;50.10;;;;;;5029282;28;19931;-72
2022/10/03 08:17:18;;;;;;;;;;;20.40;50.10;;;;;;5031267;28;19929;-72
2022/10/03 08:20:00;;;;;;;;;;;20.40;50.20;;;;;;4955063;28;20057;-72
2022/10/03 08:22:35;;;;;;;;;;;20.40;50.20;;;;;;4966736;28;20016;-72
2022/10/03 08:25:28;;;;;;;;;;;20.40;50.30;;;;;;5006325;28;19968;-72
2022/10/03 08:28:08;;;;;;;;;;;20.40;50.20;;;;;;5030878;28;20318;-72
2022/10/03 08:30:38;;;;;;;;;;;20.40;50.20;;;;;;5027999;28;19939;-71
2022/10/03 08:33:11;;;;;;;;;;;20.40;50.20;;;;;;5032765;28;20403;-71
2022/10/03 08:35:51;;;;;;;;;;;20.40;50.20;;;;;;5031356;28;20406;-71
2022/10/03 08:38:36;;;;;;;;;;;20.40;50.20;;;;;;5016961;28;20387;-71
2022/10/03 08:41:17;;;;;;;;;;;20.40;50.10;;;;;;5020846;28;19995;-71
2022/10/03 08:43:54;;;;;;;;;;;20.40;50.10;;;;;;5022887;28;20298;-71
2022/10/03 08:46:29;;;;;;;;;;;20.40;50.10;;;;;;5030980;28;19925;-71
2022/10/03 08:49:02;;;;;;;;;;;20.50;50.10;;;;;;5021564;28;19932;-71
2022/10/03 08:51:49;;;;;;;;;;;20.50;50.10;;;;;;5031043;28;20027;-72
2022/10/03 08:54:26;;;;;;;;;;;20.50;50.10;;;;;;5029881;28;20012;-72
2022/10/03 08:56:58;;;;;;;;;;;20.50;50.10;;;;;;5045465;28;19956;-71
2022/10/03 08:59:45;;;;;;;;;;;20.50;50.10;;;;;;5028223;28;19928;-72
2022/10/03 09:02:33;;;;;;;;;;;20.50;50.00;;;;;;5002318;28;19925;-72
2022/10/03 09:05:15;;;;;;;;;;;20.50;50.20;;;;;;5030819;28;20019;-72
2022/10/03 09:08:00;;;;;;;;;;;20.50;50.50;;;;;;5026282;28;19925;-72
2022/10/03 09:10:33;;;;;;;;;;;20.50;50.70;;;;;;5030387;28;19925;-72
2022/10/03 09:13:20;;;;;;;;;;;20.50;50.80;;;;;;5030513;28;19976;-72
2022/10/03 09:16:20;;;;;;;;;;;20.40;50.90;;;;;;5010635;28;19925;-72
2022/10/03 09:18:55;;;;;;;;;;;20.40;51.00;;;;;;5019307;28;20349;-72
2022/10/03 09:21:33;;;;;;;;;;;20.40;51.10;;;;;;5010861;28;19992;-72
2022/10/03 09:24:04;;;;;;;;;;;20.40;51.20;;;;;;5014398;28;19936;-72
2022/10/03 09:26:41;;;;;;;;;;;20.40;51.90;;;;;;5027301;28;20204;-72
2022/10/03 09:29:22;;;;;;;;;;;20.40;51.50;;;;;;5030168;28;20026;-73
2022/10/03 09:31:56;;;;;;;;;;;20.40;51.60;;;;;;5013372;28;19925;-72
2022/10/03 09:34:33;;;;;;;;;;;20.40;51.50;;;;;;5030420;28;19925;-72
2022/10/03 09:37:17;;;;;;;;;;;20.30;51.30;;;;;;5035241;28;19929;-72
2022/10/03 09:39:54;;;;;;;;;;;20.30;51.20;;;;;;5022348;28;19932;-72
2022/10/03 09:42:45;;;;;;;;;;;20.30;51.20;;;;;;5027104;28;19929;-72
2022/10/03 09:45:21;;;;;;;;;;;20.40;51.20;;;;;;4960562;28;19967;-72
2022/10/03 09:48:05;;;;;;;;;;;20.40;51.10;;;;;;5026172;28;19932;-72
2022/10/03 09:50:51;;;;;;;;;;;20.40;51.00;;;;;;5024821;28;20020;-72
2022/10/03 09:53:26;;;;;;;;;;;20.40;51.00;;;;;;5029033;28;20039;-72
2022/10/03 09:56:03;;;;;;;;;;;20.40;50.90;;;;;;5029846;28;19925;-72
2022/10/03 09:58:34;;;;;;;;;;;20.40;51.00;;;;;;5027578;28;19932;-72
2022/10/03 10:01:11;;;;;;;;;;;20.50;51.20;;;;;;5027471;28;19952;-72
2022/10/03 10:03:53;;;;;;;;;;;20.50;51.20;;;;;;5029467;28;19975;-72
2022/10/03 10:06:22;;;;;;;;;;;20.50;51.30;;;;;;5029195;28;19968;-72
2022/10/03 10:09:08;;;;;;;;;;;20.50;51.30;;;;;;5022650;28;19925;-72
2022/10/03 10:11:39;;;;;;;;;;;20.50;51.40;;;;;;5029194;28;20283;-71
2022/10/03 10:14:16;;;;;;;;;;;20.50;51.40;;;;;;5023187;28;20016;-73
2022/10/03 10:17:01;;;;;;;;;;;20.50;52.00;;;;;;5029558;28;19925;-71
2022/10/03 10:19:31;;;;;;;;;;;20.50;51.40;;;;;;5007747;28;19968;-72
2022/10/03 10:22:03;;;;;;;;;;;20.50;51.40;;;;;;5030452;28;19964;-71
2022/10/03 10:24:45;;;;;;;;;;;20.50;51.50;;;;;;5033016;28;19925;-72
2022/10/03 10:27:30;;;;;;;;;;;20.50;51.60;;;;;;5025006;28;19925;-71
2022/10/03 10:30:15;;;;;;;;;;;20.50;51.60;;;;;;5030208;28;19932;-71
2022/10/03 10:33:08;;;;;;;;;;;20.60;51.70;;;;;;5033360;28;19925;-71
2022/10/03 10:36:08;;;;;;;;;;;20.60;51.80;;;;;;5033124;28;20020;-72
2022/10/03 10:39:05;;;;;;;;;;;20.60;52.00;;;;;;4973076;28;19930;-72
2022/10/03 10:41:49;;;;;;;;;;;20.50;51.90;;;;;;4899683;29;19927;-71
2022/10/03 10:44:23;;;;;;;;;;;20.50;51.90;;;;;;5000977;28;19960;-72
2022/10/03 10:47:02;;;;;;;;;;;20.60;52.10;;;;;;5036944;28;20031;-71
2022/10/03 10:49:47;;;;;;;;;;;20.50;52.10;;;;;;5032001;28;20283;-71
2022/10/03 10:52:35;;;;;;;;;;;20.60;52.20;;;;;;5033637;28;19960;-72
2022/10/03 10:55:12;;;;;;;;;;;20.60;52.30;;;;;;5025763;28;20410;-71
2022/10/03 10:57:47;;;;;;;;;;;20.60;52.30;;;;;;5033190;28;20498;-71
2022/10/03 11:00:25;;;;;;;;;;;20.50;52.30;;;;;;5034370;28;19929;-73
2022/10/03 11:03:04;;;;;;;;;;;20.60;52.50;;;;;;5032548;28;19933;-73
2022/10/03 11:05:41;;;;;;;;;;;20.60;52.40;;;;;;5032204;28;20457;-72
2022/10/03 11:08:38;;;;;;;;;;;20.60;52.50;;;;;;5032263;28;19929;-71
2022/10/03 11:11:32;;;;;;;;;;;20.60;52.50;;;;;;5026695;28;20028;-72
2022/10/03 11:14:18;;;;;;;;;;;20.50;52.50;;;;;;4986237;28;19975;-71
2022/10/03 11:17:15;;;;;;;;;;;20.50;52.50;;;;;;5048073;28;19935;-71
2022/10/03 11:20:00;;;;;;;;;;;20.60;52.60;;;;;;4951439;29;19926;-72
2022/10/03 11:22:45;;;;;;;;;;;20.60;52.70;;;;;;5018566;28;19979;-71
2022/10/03 11:25:26;;;;;;;;;;;20.60;52.70;;;;;;5032387;28;20704;-72
2022/10/03 11:28:11;;;;;;;;;;;20.60;52.70;;;;;;5008314;28;20375;-72
2022/10/03 11:30:59;;;;;;;;;;;20.60;52.70;;;;;;5028286;28;19931;-72
2022/10/03 11:33:52;;;;;;;;;;;20.60;52.70;;;;;;5025656;28;20346;-71
2022/10/03 11:36:31;;;;;;;;;;;20.60;52.70;;;;;;5033075;28;19925;-71
2022/10/03 11:39:00;;;;;;;;;;;20.60;52.70;;;;;;5032186;28;19931;-72
2022/10/03 11:41:29;;;;;;;;;;;20.60;53.30;;;;;;5030673;28;19929;-72
2022/10/03 11:44:03;;;;;;;;;;;20.60;52.70;;;;;;5039484;28;19964;-71
2022/10/03 11:46:39;;;;;;;;;;;20.60;52.80;;;;;;5032191;28;19925;-71
2022/10/03 11:49:07;;;;;;;;;;;20.60;52.80;;;;;;5026986;28;19929;-72
2022/10/03 11:51:39;;;;;;;;;;;20.60;52.90;;;;;;5044552;28;19925;-71
2022/10/03 11:54:07;;;;;;;;;;;20.60;52.80;;;;;;5031164;28;20008;-72
2022/10/03 11:56:35;;;;;;;;;;;20.60;52.90;;;;;;5032331;28;20432;-72
2022/10/03 11:59:12;;;;;;;;;;;20.60;52.90;;;;;;5029344;28;19976;-72
2022/10/03 12:01:43;;;;;;;;;;;20.60;53.40;;;;;;5031361;28;20016;-71
2022/10/03 12:04:11;;;;;;;;;;;20.60;52.80;;;;;;5028397;28;20320;-72
2022/10/03 12:09:41;;;;;;;;;;;20.60;52.70;;;;;;5031583;28;19929;-72
2022/10/03 12:12:10;;;;;;;;;;;20.60;52.60;;;;;;5031811;28;19933;-72
2022/10/03 12:14:38;;;;;;;;;;;20.70;52.70;;;;;;5029952;28;20016;-72
2022/10/03 12:17:05;;;;;;;;;;;20.70;52.70;;;;;;5038174;28;20027;-72
2022/10/03 12:19:33;;;;;;;;;;;20.70;52.60;;;;;;5028454;28;19929;-71
2022/10/03 12:22:03;;;;;;;;;;;20.70;52.60;;;;;;5031270;28;19971;-71
2022/10/03 12:24:30;;;;;;;;;;;20.60;52.50;;;;;;5031102;28;19925;-71
2022/10/03 12:27:00;;;;;;;;;;;20.60;52.50;;;;;;5030002;28;19929;-72
2022/10/03 12:29:28;;;;;;;;;;;20.70;52.50;;;;;;5029585;28;19986;-72
2022/10/03 12:31:59;;;;;;;;;;;20.60;52.50;;;;;;5021844;28;19925;-72
2022/10/03 12:34:37;;;;;;;;;;;20.70;52.50;;;;;;5030244;28;19929;-72
2022/10/03 12:37:31;;;;;;;;;;;20.60;52.40;;;;;;5030258;28;19931;-72
2022/10/03 12:40:01;;;;;;;;;;;20.70;52.50;;;;;;5028879;28;19933;-72
2022/10/03 12:42:30;;;;;;;;;;;20.70;52.40;;;;;;5030562;28;19932;-72
2022/10/03 12:44:59;;;;;;;;;;;20.70;52.30;;;;;;5028519;28;20280;-71
2022/10/03 12:47:44;;;;;;;;;;;20.60;52.30;;;;;;5028413;28;20012;-72
2022/10/03 12:50:14;;;;;;;;;;;20.70;52.30;;;;;;5023976;28;19925;-71
2022/10/03 12:52:43;;;;;;;;;;;20.70;52.30;;;;;;5027426;28;20021;-72
2022/10/03 12:55:15;;;;;;;;;;;20.70;52.30;;;;;;5027213;28;20374;-72
2022/10/03 12:57:54;;;;;;;;;;;20.70;52.30;;;;;;5044777;28;20420;-72
2022/10/03 13:00:21;;;;;;;;;;;20.70;52.30;;;;;;5029911;28;20366;-72
2022/10/03 13:02:53;;;;;;;;;;;20.70;52.30;;;;;;5024227;28;19992;-72
2022/10/03 13:05:30;;;;;;;;;;;20.70;52.30;;;;;;5025772;28;20015;-72
2022/10/03 13:07:59;;;;;;;;;;;20.70;52.30;;;;;;5030338;28;20345;-72
2022/10/03 13:10:30;;;;;;;;;;;20.70;52.30;;;;;;5031117;28;19933;-72
2022/10/03 13:13:15;;;;;;;;;;;20.70;52.30;;;;;;5032053;28;19933;-71
2022/10/03 13:15:43;;;;;;;;;;;20.70;52.30;;;;;;5029555;28;20390;-72
2022/10/03 13:18:17;;;;;;;;;;;20.70;52.30;;;;;;5030613;28;20320;-72
2022/10/03 13:20:47;;;;;;;;;;;20.70;52.30;;;;;;5031821;28;20306;-72
2022/10/03 13:23:18;;;;;;;;;;;20.70;52.20;;;;;;5037924;28;20080;-72
2022/10/03 13:25:46;;;;;;;;;;;20.70;52.20;;;;;;5024298;28;19925;-72
2022/10/03 13:28:15;;;;;;;;;;;20.70;52.20;;;;;;5030225;28;19925;-72
2022/10/03 13:30:44;;;;;;;;;;;20.70;52.20;;;;;;5029030;28;19925;-72
2022/10/03 13:33:12;;;;;;;;;;;20.70;52.20;;;;;;5044737;28;19958;-72
2022/10/03 13:38:30;;;;;;;;;;;20.70;52.20;;;;;;5029822;28;19925;-72
2022/10/03 13:40:59;;;;;;;;;;;20.70;52.20;;;;;;5030200;28;19929;-72
2022/10/03 13:43:28;;;;;;;;;;;20.70;52.20;;;;;;5030462;28;20389;-72
2022/10/03 13:45:56;;;;;;;;;;;20.70;52.20;;;;;;5030664;28;19925;-72
2022/10/03 13:48:25;;;;;;;;;;;20.70;52.20;;;;;;5026495;28;20028;-72
2022/10/03 13:50:54;;;;;;;;;;;20.70;52.10;;;;;;5011054;28;19929;-72
2022/10/03 13:53:36;;;;;;;;;;;20.80;52.20;;;;;;5012110;28;19949;-72
2022/10/03 13:56:03;;;;;;;;;;;20.70;52.20;;;;;;5022342;28;19979;-72
2022/10/03 13:58:34;;;;;;;;;;;20.70;52.10;;;;;;5014057;28;20023;-73
2022/10/03 14:01:12;;;;;;;;;;;20.80;52.20;;;;;;5047525;28;19932;-71
2022/10/03 14:03:40;;;;;;;;;;;20.70;52.10;;;;;;5031843;28;20565;-72
2022/10/03 14:06:10;;;;;;;;;;;20.70;52.10;;;;;;5030459;28;19925;-72
2022/10/03 14:08:53;;;;;;;;;;;20.80;52.20;;;;;;5029541;28;19933;-72
2022/10/03 14:11:22;;;;;;;;;;;20.80;52.10;;;;;;5031493;28;19931;-72
2022/10/03 14:13:54;;;;;;;;;;;20.70;52.60;;;;;;5015826;28;19933;-72
2022/10/03 14:16:22;;;;;;;;;;;20.80;52.10;;;;;;5027249;28;20015;-71
2022/10/03 14:18:52;;;;;;;;;;;20.80;52.20;;;;;;5013195;28;19953;-72
2022/10/03 14:21:23;;;;;;;;;;;20.70;52.10;;;;;;5029385;28;19932;-72
2022/10/03 14:23:51;;;;;;;;;;;20.70;52.10;;;;;;5030459;28;19983;-72
2022/10/03 14:26:20;;;;;;;;;;;20.80;52.20;;;;;;5029138;28;19931;-72
2022/10/03 14:28:47;;;;;;;;;;;20.70;52.10;;;;;;5030478;28;19929;-71
2022/10/03 14:31:16;;;;;;;;;;;20.70;52.10;;;;;;5025595;28;20016;-73
2022/10/03 14:33:43;;;;;;;;;;;20.70;52.10;;;;;;5013014;28;20024;-72
2022/10/03 14:36:15;;;;;;;;;;;20.70;52.10;;;;;;5030008;28;20063;-72
2022/10/03 14:39:01;;;;;;;;;;;20.70;52.10;;;;;;5030808;28;19965;-72
2022/10/03 14:41:43;;;;;;;;;;;20.70;52.10;;;;;;5029117;28;19929;-71
2022/10/03 14:44:10;;;;;;;;;;;20.80;52.20;;;;;;5027431;28;19995;-72
2022/10/03 14:46:40;;;;;;;;;;;20.80;52.20;;;;;;5029853;28;19987;-72
2022/10/03 14:49:08;;;;;;;;;;;20.80;52.20;;;;;;5027712;28;20025;-72
2022/10/03 14:51:36;;;;;;;;;;;20.70;52.20;;;;;;5028676;28;19932;-72
2022/10/03 14:54:04;;;;;;;;;;;20.80;52.20;;;;;;5027881;28;19971;-72
2022/10/03 14:56:31;;;;;;;;;;;20.80;52.20;;;;;;5027766;28;19933;-72
2022/10/03 14:58:58;;;;;;;;;;;20.70;52.10;;;;;;5030205;28;19940;-72
2022/10/03 15:01:27;;;;;;;;;;;20.70;52.10;;;;;;5029014;28;19931;-72
2022/10/03 15:03:57;;;;;;;;;;;20.80;52.20;;;;;;5029983;28;19925;-72
2022/10/03 15:06:34;;;;;;;;;;;20.80;52.20;;;;;;5029568;28;19976;-72
2022/10/03 15:09:01;;;;;;;;;;;20.80;52.20;;;;;;5033069;28;19925;-72
2022/10/03 15:11:28;;;;;;;;;;;20.80;52.20;;;;;;5033333;28;19936;-72
2022/10/03 15:13:55;;;;;;;;;;;20.80;52.20;;;;;;5034641;28;20382;-72
2022/10/03 15:16:22;;;;;;;;;;;20.80;52.20;;;;;;5034106;28;19925;-72
2022/10/03 15:18:51;;;;;;;;;;;20.80;52.20;;;;;;5031924;28;19968;-71